Time;durP1;ratioP1;P1;durP2;ratioP2;P2;SDS_P1;SDS_P2;PMS_P1;PMS_P2;Temp;Humidity;BMP_temperature;BMP_pressure;BME280_temperature;BME280_humidity;BME280_pressure;Samples;Min_cycle;Max_cycle;Signal;HPM_P1;HPM_P2
2023/04/23 00:00:41;;;;;;;3.88;1.90;;;;;;;;;;5035296;28;20387;-64
2023/04/23 00:03:08;;;;;;;3.15;1.75;;;;;;;;;;5034992;28;20080;-64
2023/04/23 00:05:36;;;;;;;9.10;1.90;;;;;;;;;;5031972;28;20033;-65
2023/04/23 00:08:03;;;;;;;2.70;1.30;;;;;;;;;;5030302;28;20021;-64
2023/04/23 00:10:30;;;;;;;3.95;1.98;;;;;;;;;;5030160;28;20369;-64
2023/04/23 00:12:57;;;;;;;4.32;2.33;;;;;;;;;;5029822;28;20032;-64
2023/04/23 00:15:24;;;;;;;3.67;2.20;;;;;;;;;;5032444;28;20523;-64
2023/04/23 00:17:51;;;;;;;4.53;2.05;;;;;;;;;;5034877;28;20113;-64
2023/04/23 00:20:17;;;;;;;2.38;1.83;;;;;;;;;;5034947;28;20033;-65
2023/04/23 00:22:44;;;;;;;4.45;2.00;;;;;;;;;;5034697;28;20026;-65
2023/04/23 00:25:11;;;;;;;5.00;2.38;;;;;;;;;;5034441;28;20090;-64
2023/04/23 00:27:38;;;;;;;2.97;1.70;;;;;;;;;;5031401;28;20050;-64
2023/04/23 00:30:05;;;;;;;5.18;2.40;;;;;;;;;;5029510;28;20062;-65
2023/04/23 00:32:32;;;;;;;2.63;2.00;;;;;;;;;;5029700;28;20018;-65
2023/04/23 00:34:59;;;;;;;5.88;3.83;;;;;;;;;;5029738;28;20030;-64
2023/04/23 00:37:26;;;;;;;6.13;3.05;;;;;;;;;;5031338;28;20033;-64
2023/04/23 00:39:53;;;;;;;5.10;2.63;;;;;;;;;;5034112;28;20022;-65
2023/04/23 00:42:20;;;;;;;5.27;2.30;;;;;;;;;;5034738;28;20041;-64
2023/04/23 00:44:47;;;;;;;3.67;2.47;;;;;;;;;;5034619;28;20047;-64
2023/04/23 00:47:13;;;;;;;1.97;1.67;;;;;;;;;;5034392;28;20053;-64
2023/04/23 00:49:42;;;;;;;7.17;3.23;;;;;;;;;;5032808;28;20025;-64
2023/04/23 00:52:09;;;;;;;4.80;2.53;;;;;;;;;;5029496;28;20029;-64
2023/04/23 00:54:36;;;;;;;5.13;3.00;;;;;;;;;;5029528;28;20017;-64
2023/04/23 00:57:03;;;;;;;6.03;3.17;;;;;;;;;;5029379;28;20591;-65
2023/04/23 00:59:30;;;;;;;5.07;2.93;;;;;;;;;;5030417;28;20080;-64
2023/04/23 01:01:57;;;;;;;11.30;2.70;;;;;;;;;;5034187;28;20109;-64
2023/04/23 01:04:28;;;;;;;3.50;2.53;;;;;;;;;;5034149;28;20030;-64
2023/04/23 01:06:55;;;;;;;9.20;2.97;;;;;;;;;;5034103;28;20029;-64
2023/04/23 01:09:22;;;;;;;4.03;2.60;;;;;;;;;;5034091;28;20029;-64
2023/04/23 01:11:49;;;;;;;3.77;2.60;;;;;;;;;;5032598;28;20041;-64
2023/04/23 01:14:16;;;;;;;7.10;3.70;;;;;;;;;;5028880;28;20025;-64
2023/04/23 01:16:43;;;;;;;3.73;2.67;;;;;;;;;;5028985;28;20499;-64
2023/04/23 01:19:10;;;;;;;5.77;3.40;;;;;;;;;;5028985;28;20025;-64
2023/04/23 01:21:40;;;;;;;5.07;3.67;;;;;;;;;;5029161;28;20020;-64
2023/04/23 01:24:07;;;;;;;7.57;4.03;;;;;;;;;;5033912;28;20049;-64
2023/04/23 01:26:34;;;;;;;6.90;3.30;;;;;;;;;;5033823;28;20057;-65
2023/04/23 01:29:01;;;;;;;5.70;3.80;;;;;;;;;;5033873;28;20030;-64
2023/04/23 01:31:28;;;;;;;8.03;4.37;;;;;;;;;;5033666;28;20084;-64
2023/04/23 01:33:55;;;;;;;5.23;3.33;;;;;;;;;;5032908;28;20498;-64
2023/04/23 01:36:25;;;;;;;4.83;2.77;;;;;;;;;;5028750;28;20083;-64
2023/04/23 01:38:52;;;;;;;4.37;2.57;;;;;;;;;;5028110;28;20032;-64
2023/04/23 01:41:19;;;;;;;6.67;3.47;;;;;;;;;;5028545;28;20033;-64
2023/04/23 01:43:46;;;;;;;4.53;2.97;;;;;;;;;;5028442;28;20021;-64
2023/04/23 01:46:13;;;;;;;4.37;2.43;;;;;;;;;;5033405;28;20104;-64
2023/04/23 01:48:40;;;;;;;7.07;3.23;;;;;;;;;;5033679;28;20030;-64
2023/04/23 01:51:08;;;;;;;5.20;3.17;;;;;;;;;;5033178;28;20022;-64
2023/04/23 01:53:34;;;;;;;4.67;3.20;;;;;;;;;;5033412;28;20017;-64
2023/04/23 01:56:02;;;;;;;5.60;3.30;;;;;;;;;;5033228;28;20060;-64
2023/04/23 01:58:29;;;;;;;4.30;3.37;;;;;;;;;;5028329;28;20025;-64
2023/04/23 02:00:56;;;;;;;7.77;3.30;;;;;;;;;;5028289;28;20026;-64
2023/04/23 02:03:22;;;;;;;3.97;2.90;;;;;;;;;;5028130;28;20028;-64
2023/04/23 02:05:50;;;;;;;5.93;3.23;;;;;;;;;;5028114;28;20029;-64
2023/04/23 02:08:17;;;;;;;3.70;2.80;;;;;;;;;;5032161;28;20055;-64
2023/04/23 02:10:44;;;;;;;7.53;3.27;;;;;;;;;;5033087;28;20033;-64
2023/04/23 02:13:10;;;;;;;8.07;3.07;;;;;;;;;;5032727;28;20511;-64
2023/04/23 02:15:37;;;;;;;5.30;2.90;;;;;;;;;;5033006;28;20025;-64
2023/04/23 02:18:05;;;;;;;8.57;2.67;;;;;;;;;;5033024;28;20535;-64
2023/04/23 02:20:32;;;;;;;3.37;2.53;;;;;;;;;;5028293;28;20033;-64
2023/04/23 02:22:59;;;;;;;4.47;2.97;;;;;;;;;;5028050;28;20026;-64
2023/04/23 02:25:26;;;;;;;4.80;3.27;;;;;;;;;;5027735;28;20353;-64
2023/04/23 02:27:53;;;;;;;3.07;2.10;;;;;;;;;;5027635;28;20022;-64
2023/04/23 02:30:20;;;;;;;4.93;2.80;;;;;;;;;;5030998;28;20045;-64
2023/04/23 02:32:47;;;;;;;4.27;2.77;;;;;;;;;;5032713;28;20089;-64
2023/04/23 02:35:13;;;;;;;14.03;3.13;;;;;;;;;;5032749;28;20024;-64
2023/04/23 02:37:40;;;;;;;3.30;2.20;;;;;;;;;;5032545;28;20494;-63
2023/04/23 02:40:08;;;;;;;7.00;3.33;;;;;;;;;;5032660;28;20013;-63
2023/04/23 02:42:34;;;;;;;5.37;2.87;;;;;;;;;;5028759;28;20057;-64
2023/04/23 02:45:02;;;;;;;5.33;3.13;;;;;;;;;;5027225;28;20030;-64
2023/04/23 02:47:30;;;;;;;3.33;2.33;;;;;;;;;;5027470;28;20029;-64
2023/04/23 02:49:57;;;;;;;5.30;2.73;;;;;;;;;;5026696;28;20043;-64
2023/04/23 02:52:23;;;;;;;3.10;2.20;;;;;;;;;;5030448;28;20105;-64
2023/04/23 02:54:50;;;;;;;4.80;3.13;;;;;;;;;;5032429;28;20029;-64
2023/04/23 02:57:18;;;;;;;3.73;2.27;;;;;;;;;;5032472;28;20407;-64
2023/04/23 02:59:45;;;;;;;4.30;2.90;;;;;;;;;;5032433;28;20472;-64
2023/04/23 03:02:11;;;;;;;18.03;4.20;;;;;;;;;;5032016;28;20028;-64
2023/04/23 03:04:38;;;;;;;3.93;2.63;;;;;;;;;;5029190;28;20032;-64
2023/04/23 03:07:05;;;;;;;4.83;3.47;;;;;;;;;;5027410;28;20025;-64
2023/04/23 03:09:32;;;;;;;5.93;3.80;;;;;;;;;;5027188;28;20018;-64
2023/04/23 03:11:59;;;;;;;6.07;3.60;;;;;;;;;;5027033;28;20037;-64
2023/04/23 03:14:25;;;;;;;6.03;3.30;;;;;;;;;;5029739;28;20376;-64
2023/04/23 03:16:52;;;;;;;6.23;3.53;;;;;;;;;;5032219;28;20080;-64
2023/04/23 03:19:19;;;;;;;6.37;3.53;;;;;;;;;;5032332;28;20071;-64
2023/04/23 03:21:46;;;;;;;6.87;4.67;;;;;;;;;;5031755;28;20093;-64
2023/04/23 03:24:14;;;;;;;8.30;4.47;;;;;;;;;;5032208;28;20103;-64
2023/04/23 03:26:40;;;;;;;7.03;3.90;;;;;;;;;;5029732;28;20029;-64
2023/04/23 03:29:07;;;;;;;7.00;4.03;;;;;;;;;;5027202;28;20059;-64
2023/04/23 03:31:34;;;;;;;3.83;2.87;;;;;;;;;;5026924;28;20109;-64
2023/04/23 03:34:01;;;;;;;4.67;3.33;;;;;;;;;;5026987;28;20546;-64
2023/04/23 03:36:28;;;;;;;4.27;2.50;;;;;;;;;;5028946;28;20056;-64
2023/04/23 03:38:55;;;;;;;4.80;2.97;;;;;;;;;;5031441;28;20031;-64
2023/04/23 03:41:22;;;;;;;4.97;2.33;;;;;;;;;;5032125;28;20064;-64
2023/04/23 03:43:48;;;;;;;4.23;2.17;;;;;;;;;;5032079;28;20025;-64
2023/04/23 03:46:15;;;;;;;3.90;2.50;;;;;;;;;;5031978;28;20468;-64
2023/04/23 03:48:42;;;;;;;2.40;1.73;;;;;;;;;;5030101;28;20025;-64
2023/04/23 03:51:09;;;;;;;3.47;2.30;;;;;;;;;;5026837;28;20041;-64
2023/04/23 03:53:35;;;;;;;4.47;2.70;;;;;;;;;;5027007;28;20528;-64
2023/04/23 03:56:02;;;;;;;2.63;1.97;;;;;;;;;;5026550;28;20030;-64
2023/04/23 03:58:29;;;;;;;4.57;2.60;;;;;;;;;;5027764;28;20022;-64
2023/04/23 04:00:56;;;;;;;10.83;1.73;;;;;;;;;;5033572;28;20035;-64
2023/04/23 04:03:23;;;;;;;4.07;2.33;;;;;;;;;;5035480;28;20028;-64
2023/04/23 04:05:49;;;;;;;4.03;2.30;;;;;;;;;;5035541;28;20087;-63
2023/04/23 04:08:16;;;;;;;5.77;2.57;;;;;;;;;;5035361;28;20025;-64
2023/04/23 04:10:43;;;;;;;5.17;2.97;;;;;;;;;;5034015;28;20041;-64
2023/04/23 04:13:10;;;;;;;3.60;2.43;;;;;;;;;;5030023;28;20045;-64
2023/04/23 04:15:36;;;;;;;5.63;3.27;;;;;;;;;;5030253;28;20519;-64
2023/04/23 04:18:03;;;;;;;3.30;2.50;;;;;;;;;;5030266;28;20361;-64
2023/04/23 04:20:30;;;;;;;2.57;1.70;;;;;;;;;;5030520;28;20480;-63
2023/04/23 04:22:56;;;;;;;15.50;3.50;;;;;;;;;;5034966;28;20093;-64
2023/04/23 04:25:23;;;;;;;5.90;3.33;;;;;;;;;;5035072;28;20029;-64
2023/04/23 04:27:50;;;;;;;3.60;2.50;;;;;;;;;;5035164;28;20029;-64
2023/04/23 04:30:17;;;;;;;2.97;2.33;;;;;;;;;;5034573;28;20064;-64
2023/04/23 04:32:45;;;;;;;3.80;2.60;;;;;;;;;;5034368;28;20017;-64
2023/04/23 04:35:14;;;;;;;3.70;2.33;;;;;;;;;;5029832;28;20518;-64
2023/04/23 04:37:42;;;;;;;5.10;2.70;;;;;;;;;;5030052;28;20029;-64
2023/04/23 04:40:10;;;;;;;4.70;3.30;;;;;;;;;;5029956;28;20018;-64
2023/04/23 04:42:37;;;;;;;5.90;2.67;;;;;;;;;;5029709;28;20117;-64
2023/04/23 04:45:05;;;;;;;3.93;2.73;;;;;;;;;;5034734;28;20026;-64
2023/04/23 04:47:31;;;;;;;5.23;3.40;;;;;;;;;;5034209;28;20032;-64
2023/04/23 04:49:59;;;;;;;4.50;3.07;;;;;;;;;;5034743;28;20045;-64
2023/04/23 04:52:28;;;;;;;7.20;3.00;;;;;;;;;;5034469;28;20051;-64
2023/04/23 04:54:55;;;;;;;4.50;2.23;;;;;;;;;;5034420;28;20068;-64
2023/04/23 04:57:22;;;;;;;3.70;2.80;;;;;;;;;;5029552;28;20026;-64
2023/04/23 04:59:49;;;;;;;2.63;1.97;;;;;;;;;;5029470;28;20029;-63
2023/04/23 05:02:16;;;;;;;10.23;2.27;;;;;;;;;;5029438;28;20072;-63
2023/04/23 05:04:43;;;;;;;6.40;3.23;;;;;;;;;;5029208;28;20741;-64
2023/04/23 05:07:10;;;;;;;3.10;2.37;;;;;;;;;;5033478;28;20030;-63
2023/04/23 05:09:36;;;;;;;3.97;2.90;;;;;;;;;;5034171;28;20018;-64
2023/04/23 05:12:06;;;;;;;13.33;2.50;;;;;;;;;;5033600;28;20041;-63
2023/04/23 05:14:33;;;;;;;3.87;2.43;;;;;;;;;;5034174;28;20040;-64
2023/04/23 05:17:00;;;;;;;9.20;2.77;;;;;;;;;;5034112;28;20060;-63
2023/04/23 05:19:27;;;;;;;3.67;2.50;;;;;;;;;;5029543;28;20052;-63
2023/04/23 05:21:53;;;;;;;5.50;3.13;;;;;;;;;;5028844;28;20029;-63
2023/04/23 05:24:23;;;;;;;4.80;3.07;;;;;;;;;;5028823;28;20021;-64
2023/04/23 05:26:50;;;;;;;3.47;2.67;;;;;;;;;;5028776;28;20633;-63
2023/04/23 05:29:18;;;;;;;16.03;3.27;;;;;;;;;;5032739;28;20490;-63
2023/04/23 05:31:45;;;;;;;4.83;2.63;;;;;;;;;;5033882;28;20033;-63
2023/04/23 05:34:12;;;;;;;3.53;2.83;;;;;;;;;;5033684;28;20116;-63
2023/04/23 05:36:39;;;;;;;9.97;3.87;;;;;;;;;;5033973;28;20420;-63
2023/04/23 05:39:05;;;;;;;4.90;2.47;;;;;;;;;;5033111;28;20022;-64
2023/04/23 05:41:32;;;;;;;3.63;2.43;;;;;;;;;;5029650;28;20025;-64
2023/04/23 05:43:59;;;;;;;4.03;2.90;;;;;;;;;;5028563;28;20061;-63
2023/04/23 05:46:26;;;;;;;3.23;2.23;;;;;;;;;;5028738;28;20527;-64
2023/04/23 05:48:52;;;;;;;5.67;3.13;;;;;;;;;;5028527;28;20052;-64
2023/04/23 05:51:19;;;;;;;1.93;1.57;;;;;;;;;;5031100;28;20037;-63
2023/04/23 05:53:46;;;;;;;4.90;3.00;;;;;;;;;;5033465;28;20104;-63
2023/04/23 05:56:13;;;;;;;2.30;1.90;;;;;;;;;;5033110;28;20018;-63
2023/04/23 05:58:39;;;;;;;5.33;3.13;;;;;;;;;;5032934;28;20029;-63
2023/04/23 06:01:06;;;;;;;4.67;3.10;;;;;;;;;;5033465;28;20029;-63
2023/04/23 06:03:33;;;;;;;3.97;2.53;;;;;;;;;;5030024;28;20495;-63
2023/04/23 06:06:00;;;;;;;3.90;3.00;;;;;;;;;;5028377;28;20044;-64
2023/04/23 06:08:26;;;;;;;3.87;2.27;;;;;;;;;;5028058;28;20071;-64
2023/04/23 06:10:54;;;;;;;6.33;2.83;;;;;;;;;;5028117;28;20041;-63
2023/04/23 06:13:21;;;;;;;3.53;2.30;;;;;;;;;;5030357;28;20495;-63
2023/04/23 06:15:51;;;;;;;4.00;2.67;;;;;;;;;;5032517;28;20034;-63
2023/04/23 06:18:17;;;;;;;3.83;3.00;;;;;;;;;;5033080;28;20357;-63
2023/04/23 06:20:44;;;;;;;5.43;3.23;;;;;;;;;;5033017;28;20120;-63
2023/04/23 06:23:12;;;;;;;5.37;2.90;;;;;;;;;;5032792;28;20052;-63
2023/04/23 06:25:39;;;;;;;3.20;2.67;;;;;;;;;;5029763;28;20025;-63
2023/04/23 06:28:06;;;;;;;4.23;3.00;;;;;;;;;;5027877;28;20021;-64
2023/04/23 06:30:33;;;;;;;3.30;2.77;;;;;;;;;;5027535;28;20029;-63
2023/04/23 06:32:59;;;;;;;23.37;2.90;;;;;;;;;;5027465;28;20065;-63
2023/04/23 06:35:26;;;;;;;3.67;2.53;;;;;;;;;;5029267;28;20025;-63
2023/04/23 06:37:53;;;;;;;5.43;2.33;;;;;;;;;;5032727;28;20396;-64
2023/04/23 06:40:19;;;;;;;3.90;2.53;;;;;;;;;;5032727;28;20182;-63
2023/04/23 06:42:46;;;;;;;3.77;2.63;;;;;;;;;;5032466;28;20071;-63
2023/04/23 06:45:14;;;;;;;4.60;3.33;;;;;;;;;;5032726;28;20025;-63
2023/04/23 06:47:40;;;;;;;3.83;2.97;;;;;;;;;;5030524;28;20113;-64
2023/04/23 06:50:08;;;;;;;5.93;3.07;;;;;;;;;;5027197;28;20033;-63
2023/04/23 06:52:35;;;;;;;3.50;2.60;;;;;;;;;;5027346;28;20100;-64
2023/04/23 06:55:02;;;;;;;5.43;3.53;;;;;;;;;;5027738;28;21037;-63
2023/04/23 06:57:28;;;;;;;5.57;3.40;;;;;;;;;;5028676;28;20104;-63
2023/04/23 06:59:55;;;;;;;3.57;2.77;;;;;;;;;;5032434;28;20037;-63
2023/04/23 07:02:22;;;;;;;4.93;3.80;;;;;;;;;;5032531;28;20021;-63
2023/04/23 07:04:49;;;;;;;3.43;2.50;;;;;;;;;;5032290;28;20040;-63
2023/04/23 07:07:15;;;;;;;3.47;2.63;;;;;;;;;;5031958;28;20429;-63
2023/04/23 07:09:42;;;;;;;2.63;1.87;;;;;;;;;;5031121;28;20030;-63
2023/04/23 07:12:09;;;;;;;9.80;4.37;;;;;;;;;;5027339;28;20033;-63
2023/04/23 07:14:36;;;;;;;4.90;3.70;;;;;;;;;;5027181;28;20022;-63
2023/04/23 07:17:02;;;;;;;6.20;3.60;;;;;;;;;;5027211;28;20025;-63
2023/04/23 07:19:29;;;;;;;5.20;4.00;;;;;;;;;;5027937;28;20102;-63
2023/04/23 07:21:56;;;;;;;3.77;2.80;;;;;;;;;;5032029;28;20026;-63
2023/04/23 07:24:25;;;;;;;8.20;3.67;;;;;;;;;;5032149;28;20025;-63
2023/04/23 07:26:52;;;;;;;6.13;4.93;;;;;;;;;;5032097;28;20033;-63
2023/04/23 07:29:18;;;;;;;5.40;3.73;;;;;;;;;;5032232;28;20026;-63
2023/04/23 07:31:46;;;;;;;3.60;3.10;;;;;;;;;;5031470;28;20033;-64
2023/04/23 07:34:12;;;;;;;7.43;4.63;;;;;;;;;;5026963;28;20056;-63
2023/04/23 07:36:39;;;;;;;6.17;4.03;;;;;;;;;;5030068;28;20068;-65
2023/04/23 07:39:06;;;;;;;5.47;4.10;;;;;;;;;;5030811;28;20041;-63
2023/04/23 07:41:33;;;;;;;9.97;5.53;;;;;;;;;;5031137;28;20037;-63
2023/04/23 07:43:59;;;;;;;6.07;3.77;;;;;;;;;;5035775;28;20473;-63
2023/04/23 07:46:26;;;;;;;5.53;3.97;;;;;;;;;;5036008;28;20025;-63
2023/04/23 07:48:54;;;;;;;7.37;4.03;;;;;;;;;;5035635;28;20032;-63
2023/04/23 07:51:25;;;;;;;5.20;3.50;;;;;;;;;;5035702;28;20081;-63
2023/04/23 07:53:53;;;;;;;3.63;2.73;;;;;;;;;;5035580;28;20476;-63
2023/04/23 07:56:23;;;;;;;4.77;3.23;;;;;;;;;;5030488;28;20033;-63
2023/04/23 07:58:52;;;;;;;8.87;4.90;;;;;;;;;;5030370;28;20021;-63
2023/04/23 08:01:20;;;;;;;2.87;2.47;;;;;;;;;;5030713;28;20323;-63
2023/04/23 08:03:47;;;;;;;7.87;4.63;;;;;;;;;;5030503;28;20101;-63
2023/04/23 08:06:13;;;;;;;3.70;2.90;;;;;;;;;;5035041;28;20017;-63
2023/04/23 08:08:40;;;;;;;6.50;3.63;;;;;;;;;;5035544;28;20388;-63
2023/04/23 08:11:07;;;;;;;7.80;5.03;;;;;;;;;;5035220;28;20116;-63
2023/04/23 08:13:34;;;;;;;4.83;3.93;;;;;;;;;;5035230;28;20053;-63
2023/04/23 08:16:01;;;;;;;6.73;3.63;;;;;;;;;;5034777;28;20509;-63
2023/04/23 08:18:27;;;;;;;3.40;2.73;;;;;;;;;;5030432;28;20025;-63
2023/04/23 08:20:57;;;;;;;6.60;3.43;;;;;;;;;;5030103;28;20033;-63
2023/04/23 08:23:24;;;;;;;8.17;4.00;;;;;;;;;;5030386;28;20026;-63
2023/04/23 08:25:51;;;;;;;3.87;2.67;;;;;;;;;;5030209;28;20029;-64
2023/04/23 08:28:18;;;;;;;5.43;4.40;;;;;;;;;;5034077;28;20046;-63
2023/04/23 08:30:46;;;;;;;5.20;3.70;;;;;;;;;;5034750;28;20427;-63
2023/04/23 08:33:12;;;;;;;10.43;3.83;;;;;;;;;;5034926;28;20029;-63
2023/04/23 08:35:40;;;;;;;4.90;3.47;;;;;;;;;;5035046;28;20053;-63
2023/04/23 08:38:06;;;;;;;5.93;3.73;;;;;;;;;;5035049;28;20083;-63
2023/04/23 08:40:36;;;;;;;5.83;4.47;;;;;;;;;;5030587;28;20045;-63
2023/04/23 08:43:06;;;;;;;5.30;4.10;;;;;;;;;;5030042;28;20472;-63
2023/04/23 08:45:40;;;;;;;3.97;2.97;;;;;;;;;;5029791;28;20029;-63
2023/04/23 08:48:08;;;;;;;7.07;4.33;;;;;;;;;;5028560;28;20079;-63
2023/04/23 08:50:36;;;;;;;4.50;3.90;;;;;;;;;;5033606;28;20148;-63
2023/04/23 08:53:05;;;;;;;6.67;4.20;;;;;;;;;;5034626;28;20025;-63
2023/04/23 08:55:34;;;;;;;5.93;3.13;;;;;;;;;;5034603;28;20024;-63
2023/04/23 08:58:02;;;;;;;6.00;3.33;;;;;;;;;;5034601;28;20034;-63
2023/04/23 09:00:29;;;;;;;3.97;3.00;;;;;;;;;;5034235;28;20376;-63
2023/04/23 09:02:56;;;;;;;4.03;3.23;;;;;;;;;;5030090;28;20112;-63
2023/04/23 09:05:23;;;;;;;5.07;3.87;;;;;;;;;;5029119;28;20064;-63
2023/04/23 09:07:49;;;;;;;5.10;3.33;;;;;;;;;;5029569;28;20436;-63
2023/04/23 09:10:16;;;;;;;4.20;3.27;;;;;;;;;;5029130;28;20033;-64
2023/04/23 09:12:43;;;;;;;5.20;3.90;;;;;;;;;;5032739;28;20028;-63
2023/04/23 09:15:11;;;;;;;12.17;4.77;;;;;;;;;;5034261;28;20047;-63
2023/04/23 09:17:42;;;;;;;5.03;3.47;;;;;;;;;;5033887;28;20025;-63
2023/04/23 09:20:09;;;;;;;5.20;3.77;;;;;;;;;;5034223;28;20027;-63
2023/04/23 09:22:43;;;;;;;4.97;3.63;;;;;;;;;;5033949;28;20083;-63
2023/04/23 09:25:11;;;;;;;2.90;2.47;;;;;;;;;;5029884;28;20021;-63
2023/04/23 09:27:38;;;;;;;3.80;3.03;;;;;;;;;;5029185;28;20021;-63
2023/04/23 09:30:09;;;;;;;4.17;3.33;;;;;;;;;;5028814;28;20442;-63
2023/04/23 09:32:42;;;;;;;5.47;4.53;;;;;;;;;;5028627;28;20037;-63
2023/04/23 09:35:12;;;;;;;4.70;3.83;;;;;;;;;;5032687;28;20028;-63
2023/04/23 09:37:42;;;;;;;5.30;3.50;;;;;;;;;;5033747;28;20030;-63
2023/04/23 09:40:09;;;;;;;4.90;3.40;;;;;;;;;;5033574;28;20033;-63
2023/04/23 09:42:37;;;;;;;4.20;3.17;;;;;;;;;;5033885;28;20088;-63
2023/04/23 09:45:06;;;;;;;6.37;3.83;;;;;;;;;;5033146;28;20087;-63
2023/04/23 09:47:38;;;;;;;3.33;2.30;;;;;;;;;;5029382;28;20112;-64
2023/04/23 09:50:06;;;;;;;3.87;2.87;;;;;;;;;;5028525;28;20040;-63
2023/04/23 09:52:33;;;;;;;5.47;3.87;;;;;;;;;;5028326;28;20420;-63
2023/04/23 09:55:04;;;;;;;6.10;4.10;;;;;;;;;;5028432;28;20112;-63
2023/04/23 09:57:36;;;;;;;31.27;3.40;;;;;;;;;;5032018;28;20075;-63
2023/04/23 10:00:13;;;;;;;8.07;4.67;;;;;;;;;;5033218;28;20021;-63
2023/04/23 10:02:40;;;;;;;3.93;3.20;;;;;;;;;;5033333;28;20026;-63
2023/04/23 10:05:16;;;;;;;5.47;2.80;;;;;;;;;;5033421;28;20029;-63
2023/04/23 10:07:47;;;;;;;4.23;3.17;;;;;;;;;;5033398;28;20034;-63
2023/04/23 10:10:18;;;;;;;10.20;4.67;;;;;;;;;;5027625;28;20422;-64
2023/04/23 10:12:45;;;;;;;4.20;3.00;;;;;;;;;;5028075;28;20052;-63
2023/04/23 10:15:12;;;;;;;4.27;3.23;;;;;;;;;;5028161;28;20116;-63
2023/04/23 10:17:40;;;;;;;4.97;3.17;;;;;;;;;;5027950;28;20026;-63
2023/04/23 10:20:08;;;;;;;5.17;3.47;;;;;;;;;;5032535;28;20017;-63
2023/04/23 10:22:35;;;;;;;13.60;5.43;;;;;;;;;;5032900;28;20032;-63
2023/04/23 10:25:08;;;;;;;5.13;3.80;;;;;;;;;;5032502;28;20035;-64
2023/04/23 10:27:38;;;;;;;4.50;3.23;;;;;;;;;;5032794;28;20490;-63
2023/04/23 10:30:15;;;;;;;4.40;3.67;;;;;;;;;;5032613;28;20025;-63
2023/04/23 10:32:42;;;;;;;5.23;4.27;;;;;;;;;;5027734;28;20084;-63
2023/04/23 10:35:09;;;;;;;5.20;3.93;;;;;;;;;;5027780;28;20029;-63
2023/04/23 10:37:36;;;;;;;5.43;3.80;;;;;;;;;;5027346;28;20376;-63
2023/04/23 10:40:10;;;;;;;6.57;4.63;;;;;;;;;;5027473;28;20061;-63
2023/04/23 10:42:38;;;;;;;9.77;6.37;;;;;;;;;;5032605;28;20029;-63
2023/04/23 10:45:08;;;;;;;6.07;4.60;;;;;;;;;;5032504;28;20104;-63
2023/04/23 10:47:36;;;;;;;5.83;3.93;;;;;;;;;;5032428;28;20065;-63
2023/04/23 10:50:18;;;;;;;5.97;3.83;;;;;;;;;;5032730;28;20026;-64
2023/04/23 10:52:50;;;;;;;6.47;2.87;;;;;;;;;;5031931;28;20041;-63
2023/04/23 10:55:17;;;;;;;7.70;4.57;;;;;;;;;;5027515;28;20531;-63
2023/04/23 10:58:04;;;;;;;5.43;4.27;;;;;;;;;;5027431;28;20368;-63
2023/04/23 11:00:44;;;;;;;6.03;4.03;;;;;;;;;;5027049;28;20079;-63
2023/04/23 11:03:29;;;;;;;5.33;3.27;;;;;;;;;;5028753;28;20431;-63
2023/04/23 11:05:56;;;;;;;;;;;;;;;;;;5032643;28;20108;-63
2023/04/23 11:08:22;;;;;;;10.47;4.93;;;;;;;;;;5032383;28;19912;-63
2023/04/23 11:10:57;;;;;;;11.33;5.33;;;;;;;;;;5033845;28;20079;-63
2023/04/23 11:13:25;;;;;;;6.40;4.13;;;;;;;;;;5036649;28;20044;-63
2023/04/23 11:16:10;;;;;;;4.30;3.17;;;;;;;;;;5034137;28;20064;-64
2023/04/23 11:19:15;;;;;;;7.20;4.18;;;;;;;;;;5031285;28;20040;-63
2023/04/23 11:22:10;;;;;;;10.30;6.10;;;;;;;;;;4989193;28;20037;-63
2023/04/23 11:24:41;;;;;;;4.88;4.35;;;;;;;;;;4981001;28;20043;-63
2023/04/23 11:27:13;;;;;;;4.67;4.00;;;;;;;;;;5023000;28;20176;-63
2023/04/23 11:29:40;;;;;;;6.43;3.60;;;;;;;;;;5036232;28;20024;-63
2023/04/23 11:32:11;;;;;;;6.03;3.87;;;;;;;;;;5035993;28;20384;-63
2023/04/23 11:34:42;;;;;;;3.50;2.23;;;;;;;;;;5036005;28;20033;-63
2023/04/23 11:37:13;;;;;;;5.97;4.60;;;;;;;;;;5036096;28;20021;-63
2023/04/23 11:39:41;;;;;;;5.07;4.00;;;;;;;;;;5030721;28;20025;-63
2023/04/23 11:42:12;;;;;;;8.57;3.80;;;;;;;;;;5030931;28;20064;-63
2023/04/23 11:44:42;;;;;;;6.27;4.50;;;;;;;;;;5030988;28;20029;-63
2023/04/23 11:47:12;;;;;;;9.03;5.43;;;;;;;;;;5030902;28;20104;-63
2023/04/23 11:49:39;;;;;;;12.57;4.93;;;;;;;;;;5035437;28;20105;-63
2023/04/23 11:52:06;;;;;;;5.83;3.83;;;;;;;;;;5035829;28;20462;-63
2023/04/23 11:54:33;;;;;;;5.57;4.33;;;;;;;;;;5035785;28;20025;-63
2023/04/23 11:57:00;;;;;;;7.77;4.90;;;;;;;;;;5035562;28;20061;-64
2023/04/23 11:59:27;;;;;;;9.53;4.37;;;;;;;;;;5035624;28;20029;-63
2023/04/23 12:01:55;;;;;;;9.50;4.37;;;;;;;;;;5030555;28;20029;-63
2023/04/23 12:04:23;;;;;;;5.33;3.67;;;;;;;;;;5030099;28;20348;-63
2023/04/23 12:06:51;;;;;;;7.67;4.43;;;;;;;;;;5030406;28;20025;-62
2023/04/23 12:09:20;;;;;;;5.67;4.30;;;;;;;;;;5030378;28;20037;-63
2023/04/23 12:11:49;;;;;;;5.70;3.90;;;;;;;;;;5034846;28;20033;-63
2023/04/23 12:14:16;;;;;;;7.07;4.83;;;;;;;;;;5035206;28;20037;-63
2023/04/23 12:16:51;;;;;;;5.03;4.17;;;;;;;;;;5035163;28;20353;-63
2023/04/23 12:19:21;;;;;;;5.03;3.75;;;;;;;;;;5034971;28;20075;-63
2023/04/23 12:21:49;;;;;;;3.30;2.37;;;;;;;;;;5034864;28;20030;-63
2023/04/23 12:24:16;;;;;;;3.70;2.50;;;;;;;;;;5030188;28;20049;-63
2023/04/23 12:26:43;;;;;;;8.37;5.17;;;;;;;;;;5030061;28;20688;-63
2023/04/23 12:29:12;;;;;;;7.30;4.53;;;;;;;;;;5030032;28;20052;-63
2023/04/23 12:31:39;;;;;;;4.50;3.90;;;;;;;;;;5029685;28;20072;-63
2023/04/23 12:34:07;;;;;;;7.37;4.63;;;;;;;;;;5034105;28;20415;-63
2023/04/23 12:36:35;;;;;;;4.90;3.83;;;;;;;;;;5034949;28;20049;-63
2023/04/23 12:39:20;;;;;;;8.37;4.80;;;;;;;;;;5034950;28;20037;-63
2023/04/23 12:41:47;;;;;;;6.17;4.67;;;;;;;;;;5034781;28;20030;-63
2023/04/23 12:44:15;;;;;;;7.27;4.40;;;;;;;;;;5034189;28;20026;-63
2023/04/23 12:46:41;;;;;;;9.87;5.20;;;;;;;;;;5029218;28;20029;-63
2023/04/23 12:49:08;;;;;;;6.20;4.37;;;;;;;;;;5029530;28;20376;-63
2023/04/23 12:51:35;;;;;;;6.07;4.80;;;;;;;;;;5029381;28;20565;-63
2023/04/23 12:54:02;;;;;;;16.33;5.93;;;;;;;;;;5029547;28;20037;-63
2023/04/23 12:56:29;;;;;;;6.83;5.40;;;;;;;;;;5034315;28;20071;-63
2023/04/23 12:58:56;;;;;;;7.93;5.17;;;;;;;;;;5034562;28;20029;-63
2023/04/23 13:01:23;;;;;;;5.90;4.50;;;;;;;;;;5034300;28;20028;-63
2023/04/23 13:03:50;;;;;;;7.90;5.83;;;;;;;;;;5033712;28;20025;-63
2023/04/23 13:06:17;;;;;;;9.67;5.90;;;;;;;;;;5034222;28;20030;-63
2023/04/23 13:08:44;;;;;;;5.73;4.43;;;;;;;;;;5029172;28;20022;-63
2023/04/23 13:11:10;;;;;;;8.50;5.53;;;;;;;;;;5029115;28;20034;-63
2023/04/23 13:13:37;;;;;;;8.03;4.43;;;;;;;;;;5029292;28;20476;-63
2023/04/23 13:16:04;;;;;;;27.73;4.77;;;;;;;;;;5028940;28;20041;-63
2023/04/23 13:18:33;;;;;;;7.17;3.87;;;;;;;;;;5033443;28;20103;-64
2023/04/23 13:21:00;;;;;;;7.30;4.47;;;;;;;;;;5033710;28;20570;-64
2023/04/23 13:23:27;;;;;;;5.37;4.17;;;;;;;;;;5034019;28;20091;-63
2023/04/23 13:25:53;;;;;;;6.00;4.20;;;;;;;;;;5033873;28;20030;-63
2023/04/23 13:28:20;;;;;;;7.47;4.77;;;;;;;;;;5033918;28;20113;-63
2023/04/23 13:30:47;;;;;;;6.13;4.57;;;;;;;;;;5029028;28;20065;-63
2023/04/23 13:33:14;;;;;;;9.30;5.57;;;;;;;;;;5028414;28;20030;-63
2023/04/23 13:35:40;;;;;;;5.30;3.80;;;;;;;;;;5028282;28;20025;-63
2023/04/23 13:38:07;;;;;;;9.93;5.63;;;;;;;;;;5028344;28;20022;-63
2023/04/23 13:40:34;;;;;;;22.87;5.63;;;;;;;;;;5032629;28;20033;-63
2023/04/23 13:43:01;;;;;;;6.70;4.80;;;;;;;;;;5033634;28;20095;-63
2023/04/23 13:45:28;;;;;;;8.40;5.97;;;;;;;;;;5033529;28;20052;-63
2023/04/23 13:47:55;;;;;;;5.33;4.10;;;;;;;;;;5033574;28;20364;-63
2023/04/23 13:50:21;;;;;;;7.10;4.60;;;;;;;;;;5033423;28;20025;-63
2023/04/23 13:52:48;;;;;;;5.70;4.23;;;;;;;;;;5028827;28;20087;-64
2023/04/23 13:55:15;;;;;;;4.50;3.50;;;;;;;;;;5028304;28;20064;-63
2023/04/23 13:57:42;;;;;;;5.53;3.90;;;;;;;;;;5028339;28;20024;-64
2023/04/23 14:00:11;;;;;;;9.27;5.53;;;;;;;;;;5028171;28;20108;-64
2023/04/23 14:02:38;;;;;;;8.03;5.23;;;;;;;;;;5031852;28;20018;-64
2023/04/23 14:05:07;;;;;;;8.57;4.90;;;;;;;;;;5033207;28;20536;-63
2023/04/23 14:07:34;;;;;;;6.10;4.50;;;;;;;;;;5032733;28;20541;-64
2023/04/23 14:10:01;;;;;;;5.00;3.87;;;;;;;;;;5033253;28;20018;-64
2023/04/23 14:12:28;;;;;;;7.17;4.30;;;;;;;;;;5032838;28;20037;-64
2023/04/23 14:14:55;;;;;;;5.20;3.80;;;;;;;;;;5029094;28;20037;-64
2023/04/23 14:17:22;;;;;;;29.20;4.00;;;;;;;;;;5028137;28;20531;-63
2023/04/23 14:19:48;;;;;;;7.47;4.13;;;;;;;;;;5028033;28;20072;-64
2023/04/23 14:22:15;;;;;;;7.77;4.17;;;;;;;;;;5027833;28;20032;-64
2023/04/23 14:24:46;;;;;;;8.27;3.77;;;;;;;;;;5030521;28;20057;-64
2023/04/23 14:27:13;;;;;;;4.80;4.07;;;;;;;;;;5032807;28;20037;-64
2023/04/23 14:29:39;;;;;;;5.03;3.63;;;;;;;;;;5032696;28;20045;-64
2023/04/23 14:32:07;;;;;;;9.73;3.47;;;;;;;;;;5032572;28;20026;-64
2023/04/23 14:34:36;;;;;;;6.00;4.53;;;;;;;;;;5032688;28;20471;-64
2023/04/23 14:37:03;;;;;;;5.53;4.33;;;;;;;;;;5028777;28;20056;-64
2023/04/23 14:39:30;;;;;;;5.27;3.80;;;;;;;;;;5027270;28;20025;-64
2023/04/23 14:41:57;;;;;;;7.17;4.40;;;;;;;;;;5027827;28;20033;-64
2023/04/23 14:44:25;;;;;;;6.27;3.70;;;;;;;;;;5027151;28;20030;-64
2023/04/23 14:46:55;;;;;;;7.33;4.20;;;;;;;;;;5029917;28;20025;-64